sensor_id;sensor_type;location;lat;lon;timestamp;P1;durP1;ratioP1;P2;durP2;ratioP2
68010;SDS011;54794;48.348;7.878;2022-11-23T00:01:25;2.65;;;0.57;;
68010;SDS011;54794;48.348;7.878;2022-11-23T00:03:55;1.20;;;0.45;;
68010;SDS011;54794;48.348;7.878;2022-11-23T00:06:25;0.90;;;0.40;;
68010;SDS011;54794;48.348;7.878;2022-11-23T00:08:53;2.35;;;0.60;;
68010;SDS011;54794;48.348;7.878;2022-11-23T00:11:20;1.38;;;0.50;;
68010;SDS011;54794;48.348;7.878;2022-11-23T00:13:49;1.58;;;0.60;;
68010;SDS011;54794;48.348;7.878;2022-11-23T00:16:21;1.20;;;0.57;;
68010;SDS011;54794;48.348;7.878;2022-11-23T00:18:52;1.80;;;0.50;;
68010;SDS011;54794;48.348;7.878;2022-11-23T00:21:23;2.58;;;0.60;;
68010;SDS011;54794;48.348;7.878;2022-11-23T00:23:52;1.60;;;0.50;;
68010;SDS011;54794;48.348;7.878;2022-11-23T00:26:19;1.38;;;0.50;;
68010;SDS011;54794;48.348;7.878;2022-11-23T00:28:46;1.20;;;0.40;;
68010;SDS011;54794;48.348;7.878;2022-11-23T00:31:14;0.65;;;0.30;;
68010;SDS011;54794;48.348;7.878;2022-11-23T00:33:48;1.15;;;0.50;;
68010;SDS011;54794;48.348;7.878;2022-11-23T00:36:18;0.90;;;0.32;;
68010;SDS011;54794;48.348;7.878;2022-11-23T00:38:47;1.80;;;0.40;;
68010;SDS011;54794;48.348;7.878;2022-11-23T00:41:17;1.15;;;0.30;;
68010;SDS011;54794;48.348;7.878;2022-11-23T00:43:48;0.43;;;0.25;;
68010;SDS011;54794;48.348;7.878;2022-11-23T00:48:46;1.63;;;0.20;;
68010;SDS011;54794;48.348;7.878;2022-11-23T00:51:16;1.83;;;0.38;;
68010;SDS011;54794;48.348;7.878;2022-11-23T00:53:48;1.27;;;0.40;;
68010;SDS011;54794;48.348;7.878;2022-11-23T00:56:16;1.30;;;0.63;;
68010;SDS011;54794;48.348;7.878;2022-11-23T00:58:46;2.40;;;0.73;;
68010;SDS011;54794;48.348;7.878;2022-11-23T01:01:22;0.95;;;0.35;;
68010;SDS011;54794;48.348;7.878;2022-11-23T01:03:52;2.55;;;0.90;;
68010;SDS011;54794;48.348;7.878;2022-11-23T01:06:24;1.65;;;0.73;;
68010;SDS011;54794;48.348;7.878;2022-11-23T01:09:02;1.92;;;0.70;;
68010;SDS011;54794;48.348;7.878;2022-11-23T01:11:33;4.72;;;0.93;;
68010;SDS011;54794;48.348;7.878;2022-11-23T01:14:00;1.25;;;0.85;;
68010;SDS011;54794;48.348;7.878;2022-11-23T01:16:29;2.08;;;0.70;;
68010;SDS011;54794;48.348;7.878;2022-11-23T01:19:03;1.23;;;0.80;;
68010;SDS011;54794;48.348;7.878;2022-11-23T01:21:39;1.53;;;0.70;;
68010;SDS011;54794;48.348;7.878;2022-11-23T01:24:08;1.05;;;0.50;;
68010;SDS011;54794;48.348;7.878;2022-11-23T01:26:39;0.80;;;0.43;;
68010;SDS011;54794;48.348;7.878;2022-11-23T01:31:34;0.95;;;0.47;;
68010;SDS011;54794;48.348;7.878;2022-11-23T01:34:01;3.13;;;0.75;;
68010;SDS011;54794;48.348;7.878;2022-11-23T01:36:30;0.65;;;0.35;;
68010;SDS011;54794;48.348;7.878;2022-11-23T01:38:59;0.73;;;0.30;;
68010;SDS011;54794;48.348;7.878;2022-11-23T01:41:29;1.10;;;0.20;;
68010;SDS011;54794;48.348;7.878;2022-11-23T01:44:19;0.63;;;0.22;;
68010;SDS011;54794;48.348;7.878;2022-11-23T01:46:46;0.28;;;0.25;;
68010;SDS011;54794;48.348;7.878;2022-11-23T01:49:13;0.75;;;0.40;;
68010;SDS011;54794;48.348;7.878;2022-11-23T01:51:40;1.17;;;0.40;;
68010;SDS011;54794;48.348;7.878;2022-11-23T01:54:14;0.40;;;0.30;;
68010;SDS011;54794;48.348;7.878;2022-11-23T01:57:00;1.60;;;0.47;;
68010;SDS011;54794;48.348;7.878;2022-11-23T01:59:34;1.40;;;0.30;;
68010;SDS011;54794;48.348;7.878;2022-11-23T02:04:31;0.25;;;0.20;;
68010;SDS011;54794;48.348;7.878;2022-11-23T02:07:02;0.17;;;0.10;;
68010;SDS011;54794;48.348;7.878;2022-11-23T02:09:31;0.57;;;0.30;;
68010;SDS011;54794;48.348;7.878;2022-11-23T02:12:00;1.15;;;0.43;;
68010;SDS011;54794;48.348;7.878;2022-11-23T02:14:27;0.77;;;0.32;;
68010;SDS011;54794;48.348;7.878;2022-11-23T02:16:58;0.57;;;0.38;;
68010;SDS011;54794;48.348;7.878;2022-11-23T02:25:07;1.00;;;0.30;;
68010;SDS011;54794;48.348;7.878;2022-11-23T02:28:00;1.02;;;0.40;;
68010;SDS011;54794;48.348;7.878;2022-11-23T02:30:28;0.55;;;0.22;;
68010;SDS011;54794;48.348;7.878;2022-11-23T02:32:57;0.95;;;0.20;;
68010;SDS011;54794;48.348;7.878;2022-11-23T02:35:24;0.63;;;0.35;;
68010;SDS011;54794;48.348;7.878;2022-11-23T02:37:51;0.60;;;0.20;;
68010;SDS011;54794;48.348;7.878;2022-11-23T02:40:22;1.35;;;0.50;;
68010;SDS011;54794;48.348;7.878;2022-11-23T02:42:56;2.45;;;0.25;;
68010;SDS011;54794;48.348;7.878;2022-11-23T02:48:26;0.77;;;0.20;;
68010;SDS011;54794;48.348;7.878;2022-11-23T02:50:53;1.80;;;0.57;;
68010;SDS011;54794;48.348;7.878;2022-11-23T02:53:20;3.10;;;0.40;;
68010;SDS011;54794;48.348;7.878;2022-11-23T02:55:46;1.13;;;0.40;;
68010;SDS011;54794;48.348;7.878;2022-11-23T02:58:13;0.82;;;0.22;;
68010;SDS011;54794;48.348;7.878;2022-11-23T03:00:40;0.98;;;0.43;;
68010;SDS011;54794;48.348;7.878;2022-11-23T03:03:07;1.02;;;0.35;;
68010;SDS011;54794;48.348;7.878;2022-11-23T03:05:34;0.68;;;0.40;;
68010;SDS011;54794;48.348;7.878;2022-11-23T03:08:01;2.67;;;0.57;;
68010;SDS011;54794;48.348;7.878;2022-11-23T03:10:28;0.55;;;0.28;;
68010;SDS011;54794;48.348;7.878;2022-11-23T03:12:55;1.80;;;0.40;;
68010;SDS011;54794;48.348;7.878;2022-11-23T03:15:23;0.32;;;0.30;;
68010;SDS011;54794;48.348;7.878;2022-11-23T03:17:50;1.15;;;0.40;;
68010;SDS011;54794;48.348;7.878;2022-11-23T03:20:17;0.73;;;0.30;;
68010;SDS011;54794;48.348;7.878;2022-11-23T03:22:45;0.73;;;0.30;;
68010;SDS011;54794;48.348;7.878;2022-11-23T03:25:12;1.15;;;0.50;;
68010;SDS011;54794;48.348;7.878;2022-11-23T03:27:39;0.60;;;0.30;;
68010;SDS011;54794;48.348;7.878;2022-11-23T03:30:06;1.05;;;0.30;;
68010;SDS011;54794;48.348;7.878;2022-11-23T03:32:34;0.90;;;0.28;;
68010;SDS011;54794;48.348;7.878;2022-11-23T03:35:02;1.05;;;0.30;;
68010;SDS011;54794;48.348;7.878;2022-11-23T03:37:29;1.38;;;0.32;;
68010;SDS011;54794;48.348;7.878;2022-11-23T03:39:56;0.80;;;0.43;;
68010;SDS011;54794;48.348;7.878;2022-11-23T03:42:23;1.38;;;0.25;;
68010;SDS011;54794;48.348;7.878;2022-11-23T03:44:50;1.23;;;0.40;;
68010;SDS011;54794;48.348;7.878;2022-11-23T03:47:17;1.67;;;0.50;;
68010;SDS011;54794;48.348;7.878;2022-11-23T03:49:44;1.67;;;0.55;;
68010;SDS011;54794;48.348;7.878;2022-11-23T03:52:11;3.38;;;0.60;;
68010;SDS011;54794;48.348;7.878;2022-11-23T03:54:38;0.82;;;0.40;;
68010;SDS011;54794;48.348;7.878;2022-11-23T03:57:05;0.73;;;0.30;;
68010;SDS011;54794;48.348;7.878;2022-11-23T03:59:32;3.75;;;0.55;;
68010;SDS011;54794;48.348;7.878;2022-11-23T04:01:59;1.92;;;0.32;;
68010;SDS011;54794;48.348;7.878;2022-11-23T04:04:26;1.53;;;0.40;;
68010;SDS011;54794;48.348;7.878;2022-11-23T04:06:53;1.58;;;0.50;;
68010;SDS011;54794;48.348;7.878;2022-11-23T04:09:20;1.73;;;0.50;;
68010;SDS011;54794;48.348;7.878;2022-11-23T04:11:47;1.88;;;0.50;;
68010;SDS011;54794;48.348;7.878;2022-11-23T04:14:14;0.47;;;0.30;;
68010;SDS011;54794;48.348;7.878;2022-11-23T04:16:41;1.20;;;0.40;;
68010;SDS011;54794;48.348;7.878;2022-11-23T04:19:08;1.17;;;0.45;;
68010;SDS011;54794;48.348;7.878;2022-11-23T04:21:35;2.55;;;0.60;;
68010;SDS011;54794;48.348;7.878;2022-11-23T04:24:02;1.13;;;0.40;;
68010;SDS011;54794;48.348;7.878;2022-11-23T04:26:29;2.17;;;0.60;;
68010;SDS011;54794;48.348;7.878;2022-11-23T04:28:55;0.60;;;0.40;;
68010;SDS011;54794;48.348;7.878;2022-11-23T04:31:22;1.08;;;0.40;;
68010;SDS011;54794;48.348;7.878;2022-11-23T04:33:49;1.45;;;0.40;;
68010;SDS011;54794;48.348;7.878;2022-11-23T04:36:16;0.75;;;0.30;;
68010;SDS011;54794;48.348;7.878;2022-11-23T04:38:43;1.80;;;0.40;;
68010;SDS011;54794;48.348;7.878;2022-11-23T04:41:10;1.00;;;0.40;;
68010;SDS011;54794;48.348;7.878;2022-11-23T04:43:37;0.55;;;0.30;;
68010;SDS011;54794;48.348;7.878;2022-11-23T04:46:04;0.50;;;0.30;;
68010;SDS011;54794;48.348;7.878;2022-11-23T04:48:30;2.58;;;0.50;;
68010;SDS011;54794;48.348;7.878;2022-11-23T04:50:57;1.27;;;0.38;;
68010;SDS011;54794;48.348;7.878;2022-11-23T04:53:24;1.40;;;0.50;;
68010;SDS011;54794;48.348;7.878;2022-11-23T04:55:51;2.13;;;0.50;;
68010;SDS011;54794;48.348;7.878;2022-11-23T04:58:18;2.73;;;0.37;;
68010;SDS011;54794;48.348;7.878;2022-11-23T05:00:45;0.95;;;0.28;;
68010;SDS011;54794;48.348;7.878;2022-11-23T05:03:12;1.27;;;0.52;;
68010;SDS011;54794;48.348;7.878;2022-11-23T05:05:39;1.17;;;0.50;;
68010;SDS011;54794;48.348;7.878;2022-11-23T05:08:07;1.52;;;0.50;;
68010;SDS011;54794;48.348;7.878;2022-11-23T05:10:35;1.58;;;0.60;;
68010;SDS011;54794;48.348;7.878;2022-11-23T05:13:02;0.85;;;0.43;;
68010;SDS011;54794;48.348;7.878;2022-11-23T05:15:29;1.25;;;0.57;;
68010;SDS011;54794;48.348;7.878;2022-11-23T05:18:03;1.95;;;0.52;;
68010;SDS011;54794;48.348;7.878;2022-11-23T05:20:32;1.10;;;0.45;;
68010;SDS011;54794;48.348;7.878;2022-11-23T05:22:59;1.40;;;0.47;;
68010;SDS011;54794;48.348;7.878;2022-11-23T05:25:27;3.45;;;0.70;;
68010;SDS011;54794;48.348;7.878;2022-11-23T05:27:53;1.60;;;0.50;;
68010;SDS011;54794;48.348;7.878;2022-11-23T05:30:20;1.70;;;0.50;;
68010;SDS011;54794;48.348;7.878;2022-11-23T05:32:47;0.93;;;0.43;;
68010;SDS011;54794;48.348;7.878;2022-11-23T05:35:14;1.88;;;0.32;;
68010;SDS011;54794;48.348;7.878;2022-11-23T05:37:41;1.85;;;0.43;;
68010;SDS011;54794;48.348;7.878;2022-11-23T05:40:08;1.70;;;0.80;;
68010;SDS011;54794;48.348;7.878;2022-11-23T05:42:37;1.55;;;0.60;;
68010;SDS011;54794;48.348;7.878;2022-11-23T05:45:04;1.17;;;0.50;;
68010;SDS011;54794;48.348;7.878;2022-11-23T05:47:36;2.35;;;0.63;;
68010;SDS011;54794;48.348;7.878;2022-11-23T05:50:03;1.85;;;0.68;;
68010;SDS011;54794;48.348;7.878;2022-11-23T05:52:31;2.97;;;0.88;;
68010;SDS011;54794;48.348;7.878;2022-11-23T05:54:58;3.58;;;0.98;;
68010;SDS011;54794;48.348;7.878;2022-11-23T05:57:25;1.83;;;0.60;;
68010;SDS011;54794;48.348;7.878;2022-11-23T05:59:52;1.17;;;0.60;;
68010;SDS011;54794;48.348;7.878;2022-11-23T06:02:19;1.80;;;0.43;;
68010;SDS011;54794;48.348;7.878;2022-11-23T06:04:45;1.55;;;0.68;;
68010;SDS011;54794;48.348;7.878;2022-11-23T06:07:12;0.80;;;0.50;;
68010;SDS011;54794;48.348;7.878;2022-11-23T06:09:39;1.27;;;0.55;;
68010;SDS011;54794;48.348;7.878;2022-11-23T06:12:06;1.10;;;0.60;;
68010;SDS011;54794;48.348;7.878;2022-11-23T06:14:33;1.00;;;0.52;;
68010;SDS011;54794;48.348;7.878;2022-11-23T06:17:00;0.95;;;0.60;;
68010;SDS011;54794;48.348;7.878;2022-11-23T06:19:27;1.63;;;0.50;;
68010;SDS011;54794;48.348;7.878;2022-11-23T06:21:56;1.13;;;0.60;;
68010;SDS011;54794;48.348;7.878;2022-11-23T06:24:23;1.42;;;0.70;;
68010;SDS011;54794;48.348;7.878;2022-11-23T06:26:50;0.80;;;0.50;;
68010;SDS011;54794;48.348;7.878;2022-11-23T06:29:18;0.90;;;0.60;;
68010;SDS011;54794;48.348;7.878;2022-11-23T06:34:12;1.27;;;0.55;;
68010;SDS011;54794;48.348;7.878;2022-11-23T06:36:39;2.25;;;0.63;;
68010;SDS011;54794;48.348;7.878;2022-11-23T06:39:06;0.95;;;0.60;;
68010;SDS011;54794;48.348;7.878;2022-11-23T06:41:33;1.27;;;1.00;;
68010;SDS011;54794;48.348;7.878;2022-11-23T06:44:00;1.40;;;0.82;;
68010;SDS011;54794;48.348;7.878;2022-11-23T06:46:27;1.70;;;0.88;;
68010;SDS011;54794;48.348;7.878;2022-11-23T06:48:54;1.57;;;0.83;;
68010;SDS011;54794;48.348;7.878;2022-11-23T06:51:21;1.13;;;0.65;;
68010;SDS011;54794;48.348;7.878;2022-11-23T06:53:48;1.58;;;0.47;;
68010;SDS011;54794;48.348;7.878;2022-11-23T06:56:15;2.65;;;0.60;;
68010;SDS011;54794;48.348;7.878;2022-11-23T06:58:42;0.85;;;0.50;;
68010;SDS011;54794;48.348;7.878;2022-11-23T07:01:09;2.17;;;0.63;;
68010;SDS011;54794;48.348;7.878;2022-11-23T07:03:36;1.20;;;0.73;;
68010;SDS011;54794;48.348;7.878;2022-11-23T07:06:09;1.33;;;0.60;;
68010;SDS011;54794;48.348;7.878;2022-11-23T07:08:36;1.45;;;0.60;;
68010;SDS011;54794;48.348;7.878;2022-11-23T07:11:09;2.20;;;0.70;;
68010;SDS011;54794;48.348;7.878;2022-11-23T07:13:37;2.05;;;0.73;;
68010;SDS011;54794;48.348;7.878;2022-11-23T07:16:04;0.80;;;0.50;;
68010;SDS011;54794;48.348;7.878;2022-11-23T07:18:32;1.67;;;0.60;;
68010;SDS011;54794;48.348;7.878;2022-11-23T07:20:59;1.45;;;0.77;;
68010;SDS011;54794;48.348;7.878;2022-11-23T07:23:26;1.48;;;0.60;;
68010;SDS011;54794;48.348;7.878;2022-11-23T07:25:53;0.75;;;0.50;;
68010;SDS011;54794;48.348;7.878;2022-11-23T07:28:20;1.05;;;0.65;;
68010;SDS011;54794;48.348;7.878;2022-11-23T07:30:48;1.90;;;0.50;;
68010;SDS011;54794;48.348;7.878;2022-11-23T07:33:17;3.50;;;0.80;;
68010;SDS011;54794;48.348;7.878;2022-11-23T07:35:44;2.58;;;0.70;;
68010;SDS011;54794;48.348;7.878;2022-11-23T07:38:11;2.28;;;0.68;;
68010;SDS011;54794;48.348;7.878;2022-11-23T07:40:38;1.77;;;0.73;;
68010;SDS011;54794;48.348;7.878;2022-11-23T07:43:05;3.22;;;0.70;;
68010;SDS011;54794;48.348;7.878;2022-11-23T07:45:33;1.17;;;0.40;;
68010;SDS011;54794;48.348;7.878;2022-11-23T07:48:03;1.08;;;0.60;;
68010;SDS011;54794;48.348;7.878;2022-11-23T07:50:34;1.13;;;0.60;;
68010;SDS011;54794;48.348;7.878;2022-11-23T07:53:03;1.33;;;0.63;;
68010;SDS011;54794;48.348;7.878;2022-11-23T07:55:32;1.70;;;0.80;;
68010;SDS011;54794;48.348;7.878;2022-11-23T07:57:59;1.10;;;0.52;;
68010;SDS011;54794;48.348;7.878;2022-11-23T08:00:26;2.55;;;0.57;;
68010;SDS011;54794;48.348;7.878;2022-11-23T08:02:55;1.25;;;0.52;;
68010;SDS011;54794;48.348;7.878;2022-11-23T08:05:44;2.13;;;0.50;;
68010;SDS011;54794;48.348;7.878;2022-11-23T08:08:11;6.15;;;2.28;;
68010;SDS011;54794;48.348;7.878;2022-11-23T08:10:38;2.78;;;1.25;;
68010;SDS011;54794;48.348;7.878;2022-11-23T08:13:12;3.38;;;1.15;;
68010;SDS011;54794;48.348;7.878;2022-11-23T08:15:39;2.40;;;0.98;;
68010;SDS011;54794;48.348;7.878;2022-11-23T08:18:06;2.45;;;0.70;;
68010;SDS011;54794;48.348;7.878;2022-11-23T08:20:34;4.03;;;0.80;;
68010;SDS011;54794;48.348;7.878;2022-11-23T08:23:01;1.55;;;0.70;;
68010;SDS011;54794;48.348;7.878;2022-11-23T08:25:28;1.17;;;0.50;;
68010;SDS011;54794;48.348;7.878;2022-11-23T08:30:24;1.65;;;0.60;;
68010;SDS011;54794;48.348;7.878;2022-11-23T08:32:52;1.85;;;0.60;;
68010;SDS011;54794;48.348;7.878;2022-11-23T08:35:20;2.13;;;0.80;;
68010;SDS011;54794;48.348;7.878;2022-11-23T08:37:49;2.50;;;0.63;;
68010;SDS011;54794;48.348;7.878;2022-11-23T08:40:17;1.85;;;0.70;;
68010;SDS011;54794;48.348;7.878;2022-11-23T08:42:51;1.35;;;0.52;;
68010;SDS011;54794;48.348;7.878;2022-11-23T08:45:19;2.00;;;0.60;;
68010;SDS011;54794;48.348;7.878;2022-11-23T08:47:47;3.75;;;0.85;;
68010;SDS011;54794;48.348;7.878;2022-11-23T08:50:16;1.42;;;0.50;;
68010;SDS011;54794;48.348;7.878;2022-11-23T08:52:46;2.45;;;0.90;;
68010;SDS011;54794;48.348;7.878;2022-11-23T08:55:13;1.73;;;0.80;;
68010;SDS011;54794;48.348;7.878;2022-11-23T08:57:40;1.77;;;0.50;;
68010;SDS011;54794;48.348;7.878;2022-11-23T09:00:07;1.17;;;0.80;;
68010;SDS011;54794;48.348;7.878;2022-11-23T09:02:35;1.10;;;0.60;;
68010;SDS011;54794;48.348;7.878;2022-11-23T09:05:01;1.33;;;0.57;;
68010;SDS011;54794;48.348;7.878;2022-11-23T09:07:30;2.40;;;0.90;;
68010;SDS011;54794;48.348;7.878;2022-11-23T09:12:24;2.53;;;0.68;;
68010;SDS011;54794;48.348;7.878;2022-11-23T09:14:51;2.25;;;0.68;;
68010;SDS011;54794;48.348;7.878;2022-11-23T09:17:18;1.95;;;0.93;;
68010;SDS011;54794;48.348;7.878;2022-11-23T09:19:45;2.05;;;0.70;;
68010;SDS011;54794;48.348;7.878;2022-11-23T09:22:15;3.67;;;1.05;;
68010;SDS011;54794;48.348;7.878;2022-11-23T09:24:42;1.98;;;0.90;;
68010;SDS011;54794;48.348;7.878;2022-11-23T09:27:09;3.15;;;1.20;;
68010;SDS011;54794;48.348;7.878;2022-11-23T09:29:36;4.45;;;1.20;;
68010;SDS011;54794;48.348;7.878;2022-11-23T09:32:02;3.93;;;1.00;;
68010;SDS011;54794;48.348;7.878;2022-11-23T09:34:29;2.33;;;1.20;;
68010;SDS011;54794;48.348;7.878;2022-11-23T09:36:57;2.10;;;1.00;;
68010;SDS011;54794;48.348;7.878;2022-11-23T09:39:24;2.53;;;0.95;;
68010;SDS011;54794;48.348;7.878;2022-11-23T09:44:34;2.38;;;1.10;;
68010;SDS011;54794;48.348;7.878;2022-11-23T09:47:20;5.38;;;1.10;;
68010;SDS011;54794;48.348;7.878;2022-11-23T09:50:19;1.85;;;0.73;;
68010;SDS011;54794;48.348;7.878;2022-11-23T09:52:54;2.13;;;0.90;;
68010;SDS011;54794;48.348;7.878;2022-11-23T09:55:38;1.60;;;0.70;;
68010;SDS011;54794;48.348;7.878;2022-11-23T09:58:16;2.47;;;0.90;;
68010;SDS011;54794;48.348;7.878;2022-11-23T10:00:47;6.13;;;0.93;;
68010;SDS011;54794;48.348;7.878;2022-11-23T10:03:28;2.03;;;0.80;;
68010;SDS011;54794;48.348;7.878;2022-11-23T10:20:55;3.10;;;1.10;;
68010;SDS011;54794;48.348;7.878;2022-11-23T10:26:48;4.32;;;0.80;;
68010;SDS011;54794;48.348;7.878;2022-11-23T10:29:20;3.65;;;1.00;;
68010;SDS011;54794;48.348;7.878;2022-11-23T10:32:04;3.97;;;0.88;;
68010;SDS011;54794;48.348;7.878;2022-11-23T10:34:49;4.20;;;0.93;;
68010;SDS011;54794;48.348;7.878;2022-11-23T10:37:22;1.75;;;0.75;;
68010;SDS011;54794;48.348;7.878;2022-11-23T10:39:49;2.88;;;1.00;;
68010;SDS011;54794;48.348;7.878;2022-11-23T10:44:58;3.75;;;1.20;;
68010;SDS011;54794;48.348;7.878;2022-11-23T10:58:28;3.65;;;1.08;;
68010;SDS011;54794;48.348;7.878;2022-11-23T11:01:15;2.63;;;0.90;;
68010;SDS011;54794;48.348;7.878;2022-11-23T11:03:50;3.00;;;1.00;;
68010;SDS011;54794;48.348;7.878;2022-11-23T11:06:26;2.70;;;1.27;;
68010;SDS011;54794;48.348;7.878;2022-11-23T11:08:57;2.35;;;0.95;;
68010;SDS011;54794;48.348;7.878;2022-11-23T11:11:34;3.13;;;1.10;;
68010;SDS011;54794;48.348;7.878;2022-11-23T11:14:14;2.40;;;1.05;;
68010;SDS011;54794;48.348;7.878;2022-11-23T11:16:54;3.60;;;1.25;;
68010;SDS011;54794;48.348;7.878;2022-11-23T11:19:27;3.35;;;1.40;;
68010;SDS011;54794;48.348;7.878;2022-11-23T11:22:00;3.30;;;0.98;;
68010;SDS011;54794;48.348;7.878;2022-11-23T11:25:02;3.72;;;1.30;;
68010;SDS011;54794;48.348;7.878;2022-11-23T11:27:31;4.80;;;1.30;;
68010;SDS011;54794;48.348;7.878;2022-11-23T11:30:03;2.63;;;0.93;;
68010;SDS011;54794;48.348;7.878;2022-11-23T11:32:53;3.83;;;1.13;;
68010;SDS011;54794;48.348;7.878;2022-11-23T11:35:41;2.38;;;1.02;;
68010;SDS011;54794;48.348;7.878;2022-11-23T11:38:35;4.35;;;1.00;;
68010;SDS011;54794;48.348;7.878;2022-11-23T11:41:05;2.13;;;0.90;;
68010;SDS011;54794;48.348;7.878;2022-11-23T11:43:46;2.95;;;0.90;;
68010;SDS011;54794;48.348;7.878;2022-11-23T11:46:22;3.20;;;1.10;;
68010;SDS011;54794;48.348;7.878;2022-11-23T11:51:41;3.45;;;1.40;;
68010;SDS011;54794;48.348;7.878;2022-11-23T11:54:30;3.45;;;1.23;;
68010;SDS011;54794;48.348;7.878;2022-11-23T11:57:54;3.50;;;1.35;;
68010;SDS011;54794;48.348;7.878;2022-11-23T12:00:29;2.92;;;1.10;;
68010;SDS011;54794;48.348;7.878;2022-11-23T12:03:15;2.65;;;1.15;;
68010;SDS011;54794;48.348;7.878;2022-11-23T12:06:04;3.30;;;1.38;;
68010;SDS011;54794;48.348;7.878;2022-11-23T12:08:53;2.47;;;1.25;;
68010;SDS011;54794;48.348;7.878;2022-11-23T12:11:31;3.80;;;1.25;;
68010;SDS011;54794;48.348;7.878;2022-11-23T12:14:00;2.70;;;1.10;;
68010;SDS011;54794;48.348;7.878;2022-11-23T12:16:37;3.45;;;1.33;;
68010;SDS011;54794;48.348;7.878;2022-11-23T12:19:49;3.40;;;0.88;;
68010;SDS011;54794;48.348;7.878;2022-11-23T12:31:41;2.63;;;0.95;;
68010;SDS011;54794;48.348;7.878;2022-11-23T12:34:43;2.92;;;0.82;;
68010;SDS011;54794;48.348;7.878;2022-11-23T12:37:26;1.55;;;0.82;;
68010;SDS011;54794;48.348;7.878;2022-11-23T12:49:43;1.92;;;0.47;;
68010;SDS011;54794;48.348;7.878;2022-11-23T12:52:52;1.13;;;0.30;;
68010;SDS011;54794;48.348;7.878;2022-11-23T12:55:58;0.80;;;0.32;;
68010;SDS011;54794;48.348;7.878;2022-11-23T12:58:39;1.27;;;0.38;;
68010;SDS011;54794;48.348;7.878;2022-11-23T13:04:14;1.65;;;0.95;;
68010;SDS011;54794;48.348;7.878;2022-11-23T13:21:39;1.10;;;0.20;;
68010;SDS011;54794;48.348;7.878;2022-11-23T13:29:57;0.57;;;0.20;;
68010;SDS011;54794;48.348;7.878;2022-11-23T13:40:26;1.23;;;0.32;;
68010;SDS011;54794;48.348;7.878;2022-11-23T13:43:01;1.92;;;0.28;;
68010;SDS011;54794;48.348;7.878;2022-11-23T13:48:55;0.55;;;0.30;;
68010;SDS011;54794;48.348;7.878;2022-11-23T13:51:31;0.93;;;0.25;;
68010;SDS011;54794;48.348;7.878;2022-11-23T13:54:05;0.40;;;0.20;;
68010;SDS011;54794;48.348;7.878;2022-11-23T13:57:00;0.80;;;0.30;;
68010;SDS011;54794;48.348;7.878;2022-11-23T13:59:39;0.70;;;0.20;;
68010;SDS011;54794;48.348;7.878;2022-11-23T14:04:44;0.52;;;0.45;;
68010;SDS011;54794;48.348;7.878;2022-11-23T14:09:56;0.50;;;0.20;;
68010;SDS011;54794;48.348;7.878;2022-11-23T14:15:14;1.13;;;0.20;;
68010;SDS011;54794;48.348;7.878;2022-11-23T14:21:11;0.28;;;0.20;;
68010;SDS011;54794;48.348;7.878;2022-11-23T14:30:19;0.80;;;0.35;;
68010;SDS011;54794;48.348;7.878;2022-11-23T14:38:32;0.60;;;0.30;;
68010;SDS011;54794;48.348;7.878;2022-11-23T14:41:35;0.63;;;0.30;;
68010;SDS011;54794;48.348;7.878;2022-11-23T14:44:03;0.40;;;0.28;;
68010;SDS011;54794;48.348;7.878;2022-11-23T14:46:34;0.52;;;0.40;;
68010;SDS011;54794;48.348;7.878;2022-11-23T14:49:02;0.85;;;0.57;;
68010;SDS011;54794;48.348;7.878;2022-11-23T14:51:32;2.25;;;0.70;;
68010;SDS011;54794;48.348;7.878;2022-11-23T14:54:07;1.20;;;0.60;;
68010;SDS011;54794;48.348;7.878;2022-11-23T14:56:37;0.60;;;0.38;;
68010;SDS011;54794;48.348;7.878;2022-11-23T14:59:19;1.08;;;0.60;;
68010;SDS011;54794;48.348;7.878;2022-11-23T15:01:51;1.27;;;0.60;;
68010;SDS011;54794;48.348;7.878;2022-11-23T15:04:27;2.80;;;0.90;;
68010;SDS011;54794;48.348;7.878;2022-11-23T15:09:50;1.70;;;0.77;;
68010;SDS011;54794;48.348;7.878;2022-11-23T15:12:27;1.42;;;0.88;;
68010;SDS011;54794;48.348;7.878;2022-11-23T15:15:24;1.65;;;0.60;;
68010;SDS011;54794;48.348;7.878;2022-11-23T15:18:03;2.15;;;0.73;;
68010;SDS011;54794;48.348;7.878;2022-11-23T15:20:33;2.80;;;0.80;;
68010;SDS011;54794;48.348;7.878;2022-11-23T15:23:16;1.38;;;0.90;;
68010;SDS011;54794;48.348;7.878;2022-11-23T15:25:53;1.20;;;0.60;;
68010;SDS011;54794;48.348;7.878;2022-11-23T15:28:24;1.52;;;0.80;;
68010;SDS011;54794;48.348;7.878;2022-11-23T15:30:54;1.48;;;0.75;;
68010;SDS011;54794;48.348;7.878;2022-11-23T15:33:25;1.25;;;0.60;;
68010;SDS011;54794;48.348;7.878;2022-11-23T15:35:53;2.05;;;0.77;;
68010;SDS011;54794;48.348;7.878;2022-11-23T15:38:20;1.13;;;0.73;;
68010;SDS011;54794;48.348;7.878;2022-11-23T15:40:49;2.75;;;0.75;;
68010;SDS011;54794;48.348;7.878;2022-11-23T15:43:17;1.60;;;0.82;;
68010;SDS011;54794;48.348;7.878;2022-11-23T15:48:20;2.25;;;1.05;;
68010;SDS011;54794;48.348;7.878;2022-11-23T15:51:01;2.55;;;0.93;;
68010;SDS011;54794;48.348;7.878;2022-11-23T15:56:31;1.60;;;0.82;;
68010;SDS011;54794;48.348;7.878;2022-11-23T15:59:16;1.70;;;1.10;;
68010;SDS011;54794;48.348;7.878;2022-11-23T16:02:18;2.78;;;1.45;;
68010;SDS011;54794;48.348;7.878;2022-11-23T16:07:53;2.33;;;1.23;;
68010;SDS011;54794;48.348;7.878;2022-11-23T16:10:30;1.40;;;0.80;;
68010;SDS011;54794;48.348;7.878;2022-11-23T16:13:03;1.58;;;1.00;;
68010;SDS011;54794;48.348;7.878;2022-11-23T16:18:04;2.25;;;1.35;;
68010;SDS011;54794;48.348;7.878;2022-11-23T16:20:48;2.08;;;1.15;;
68010;SDS011;54794;48.348;7.878;2022-11-23T16:23:26;1.75;;;1.17;;
68010;SDS011;54794;48.348;7.878;2022-11-23T16:26:28;2.90;;;1.60;;
68010;SDS011;54794;48.348;7.878;2022-11-23T16:28:57;1.65;;;1.00;;
68010;SDS011;54794;48.348;7.878;2022-11-23T16:31:35;3.65;;;2.20;;
68010;SDS011;54794;48.348;7.878;2022-11-23T16:34:08;2.53;;;1.65;;
68010;SDS011;54794;48.348;7.878;2022-11-23T16:36:41;2.53;;;1.80;;
68010;SDS011;54794;48.348;7.878;2022-11-23T16:39:07;2.88;;;1.70;;
68010;SDS011;54794;48.348;7.878;2022-11-23T16:41:34;2.50;;;1.63;;
68010;SDS011;54794;48.348;7.878;2022-11-23T16:44:01;3.22;;;1.40;;
68010;SDS011;54794;48.348;7.878;2022-11-23T16:46:30;3.95;;;1.98;;
68010;SDS011;54794;48.348;7.878;2022-11-23T16:48:57;3.15;;;1.90;;
68010;SDS011;54794;48.348;7.878;2022-11-23T16:51:25;3.10;;;1.90;;
68010;SDS011;54794;48.348;7.878;2022-11-23T16:56:39;2.45;;;1.30;;
68010;SDS011;54794;48.348;7.878;2022-11-23T16:59:09;1.85;;;1.30;;
68010;SDS011;54794;48.348;7.878;2022-11-23T17:01:47;3.15;;;1.58;;
68010;SDS011;54794;48.348;7.878;2022-11-23T17:06:50;2.78;;;1.25;;
68010;SDS011;54794;48.348;7.878;2022-11-23T17:09:16;1.73;;;1.10;;
68010;SDS011;54794;48.348;7.878;2022-11-23T17:11:44;1.65;;;1.15;;
68010;SDS011;54794;48.348;7.878;2022-11-23T17:14:15;1.73;;;1.02;;
68010;SDS011;54794;48.348;7.878;2022-11-23T17:16:45;1.52;;;0.93;;
68010;SDS011;54794;48.348;7.878;2022-11-23T17:19:16;3.00;;;1.00;;
68010;SDS011;54794;48.348;7.878;2022-11-23T17:21:46;1.70;;;1.10;;
68010;SDS011;54794;48.348;7.878;2022-11-23T17:24:13;1.80;;;0.98;;
68010;SDS011;54794;48.348;7.878;2022-11-23T17:26:46;1.27;;;0.75;;
68010;SDS011;54794;48.348;7.878;2022-11-23T17:29:18;1.55;;;0.88;;
68010;SDS011;54794;48.348;7.878;2022-11-23T17:31:46;1.73;;;0.77;;
68010;SDS011;54794;48.348;7.878;2022-11-23T17:34:15;1.08;;;0.80;;
68010;SDS011;54794;48.348;7.878;2022-11-23T17:39:16;1.45;;;0.85;;
68010;SDS011;54794;48.348;7.878;2022-11-23T17:41:48;2.83;;;1.00;;
68010;SDS011;54794;48.348;7.878;2022-11-23T17:44:15;1.10;;;0.70;;
68010;SDS011;54794;48.348;7.878;2022-11-23T17:46:43;1.10;;;0.70;;
68010;SDS011;54794;48.348;7.878;2022-11-23T17:49:16;1.52;;;0.80;;
68010;SDS011;54794;48.348;7.878;2022-11-23T17:51:45;1.00;;;0.70;;
68010;SDS011;54794;48.348;7.878;2022-11-23T17:54:12;4.18;;;1.00;;